createdAt,value
2022-11-20T00:00:01.951Z,-4
2022-11-20T00:01:01.955Z,-4
2022-11-20T00:02:01.801Z,-4.1
2022-11-20T00:03:01.699Z,-4.1
2022-11-20T00:04:01.656Z,-4.1
2022-11-20T00:05:01.600Z,-4.1
2022-11-20T00:06:01.581Z,-3.9
2022-11-20T00:07:01.582Z,-3.9
2022-11-20T00:08:01.558Z,-3.9
2022-11-20T00:09:01.539Z,-3.8
2022-11-20T00:10:01.470Z,-3.8
2022-11-20T00:11:01.427Z,-3.9
2022-11-20T00:12:01.436Z,-3.9
2022-11-20T00:13:01.435Z,-3.9
2022-11-20T00:14:01.418Z,-4
2022-11-20T00:15:01.404Z,-4
2022-11-20T00:16:01.378Z,-4
2022-11-20T00:17:02.251Z,-4
2022-11-20T00:18:02.256Z,-4
2022-11-20T00:19:02.297Z,-4
2022-11-20T00:20:02.378Z,-3.9
2022-11-20T00:21:02.293Z,-3.9
2022-11-20T00:22:02.321Z,-3.9
2022-11-20T00:23:02.329Z,-3.9
2022-11-20T00:24:01.353Z,-3.9
2022-11-20T00:25:02.347Z,-3.9
2022-11-20T00:26:02.329Z,-3.9
2022-11-20T00:27:02.328Z,-3.8
2022-11-20T00:28:01.351Z,-3.8
2022-11-20T00:29:01.333Z,-3.8
2022-11-20T00:30:02.341Z,-3.9
2022-11-20T00:31:01.362Z,-3.9
2022-11-20T00:32:02.286Z,-3.9
2022-11-20T00:33:02.293Z,-3.9
2022-11-20T00:34:02.295Z,-4
2022-11-20T00:35:01.719Z,-3.9
2022-11-20T00:36:01.736Z,-3.9
2022-11-20T00:37:01.715Z,-3.9
2022-11-20T00:38:01.688Z,-3.9
2022-11-20T00:39:01.675Z,-3.9
2022-11-20T00:40:01.690Z,-4
2022-11-20T00:41:01.694Z,-4
2022-11-20T00:42:01.643Z,-3.9
2022-11-20T00:43:01.663Z,-3.9
2022-11-20T00:44:01.627Z,-4
2022-11-20T00:45:01.587Z,-3.9
2022-11-20T00:46:01.555Z,-4
2022-11-20T00:47:01.629Z,-4
2022-11-20T00:48:01.629Z,-4
2022-11-20T00:49:01.615Z,-3.9
2022-11-20T00:50:01.592Z,-3.9
2022-11-20T00:51:01.577Z,-3.9
2022-11-20T00:52:01.534Z,-4
2022-11-20T00:53:01.516Z,-4
2022-11-20T00:54:01.476Z,-4
2022-11-20T00:55:01.473Z,-4.1
2022-11-20T00:56:01.472Z,-4.1
2022-11-20T00:57:01.502Z,-4.1
2022-11-20T00:58:03.651Z,-4.1
2022-11-20T00:59:01.511Z,-4.2
2022-11-20T01:00:01.480Z,-4.1
2022-11-20T01:01:01.636Z,-4.3
2022-11-20T01:02:01.644Z,-4.2
2022-11-20T01:03:01.642Z,-4.2
2022-11-20T01:04:01.627Z,-4.3
2022-11-20T01:05:01.592Z,-4.4
2022-11-20T01:06:01.587Z,-4.3
2022-11-20T01:07:01.608Z,-4.4
2022-11-20T01:08:01.577Z,-4.4
2022-11-20T01:09:01.538Z,-4.4
2022-11-20T01:10:01.459Z,-4.3
2022-11-20T01:11:01.453Z,-4.3
2022-11-20T01:12:01.458Z,-4.2
2022-11-20T01:13:01.455Z,-4.2
2022-11-20T01:14:01.427Z,-4.3
2022-11-20T01:15:01.428Z,-4.3
2022-11-20T01:16:01.393Z,-4.5
2022-11-20T01:17:02.027Z,-4.4
2022-11-20T01:18:02.017Z,-4.4
2022-11-20T01:19:02.043Z,-4.4
2022-11-20T01:20:02.046Z,-4.4
2022-11-20T01:21:02.041Z,-4.4
2022-11-20T01:22:02.031Z,-4.4
2022-11-20T01:23:02.015Z,-4.3
2022-11-20T01:24:02.006Z,-4.3
2022-11-20T01:25:02.028Z,-4.3
2022-11-20T01:26:02.017Z,-4.3
2022-11-20T01:27:02.021Z,-4.3
2022-11-20T01:28:02.006Z,-4.3
2022-11-20T01:29:01.997Z,-4.3
2022-11-20T01:30:01.990Z,-4.4
2022-11-20T01:31:01.949Z,-4.3
2022-11-20T01:32:01.986Z,-4.3
2022-11-20T01:33:02.001Z,-4.2
2022-11-20T01:34:01.979Z,-4.2
2022-11-20T01:35:01.967Z,-4.2
2022-11-20T01:36:02.042Z,-4.2
2022-11-20T01:37:02.041Z,-4.2
2022-11-20T01:38:02.043Z,-4.2
2022-11-20T01:39:02.017Z,-4.2
2022-11-20T01:40:02.014Z,-4.3
2022-11-20T01:41:01.990Z,-4.2
2022-11-20T01:42:04.583Z,-4.2
2022-11-20T01:43:02.107Z,-4.4
2022-11-20T01:44:02.142Z,-4.4
2022-11-20T01:45:02.127Z,-4.3
2022-11-20T01:46:02.164Z,-4.3
2022-11-20T01:47:01.880Z,-4.3
2022-11-20T01:48:01.867Z,-4.3
2022-11-20T01:49:01.865Z,-4.3
2022-11-20T01:50:01.855Z,-4.2
2022-11-20T01:51:01.805Z,-4.2
2022-11-20T01:52:01.786Z,-4.2
2022-11-20T01:53:01.803Z,-4.3
2022-11-20T01:54:01.756Z,-4.4
2022-11-20T01:55:01.753Z,-4.3
2022-11-20T01:56:01.763Z,-4.4
2022-11-20T01:57:01.756Z,-4.4
2022-11-20T01:58:01.736Z,-4.4
2022-11-20T01:59:01.733Z,-4.4
2022-11-20T02:00:01.763Z,-4.3
2022-11-20T02:01:01.724Z,-4.3
2022-11-20T02:02:01.686Z,-4.5
2022-11-20T02:03:01.669Z,-4.7
2022-11-20T02:04:01.643Z,-4.7
2022-11-20T02:05:01.629Z,-4.8
2022-11-20T02:06:01.635Z,-4.9
2022-11-20T02:07:01.697Z,-4.9
2022-11-20T02:08:01.876Z,-4.9
2022-11-20T02:09:01.879Z,-4.9
2022-11-20T02:10:01.865Z,-4.8
2022-11-20T02:11:01.843Z,-4.7
2022-11-20T02:12:01.843Z,-4.8
2022-11-20T02:13:01.850Z,-4.9
2022-11-20T02:14:01.796Z,-5
2022-11-20T02:15:01.807Z,-5.1
2022-11-20T02:16:01.786Z,-5.2
2022-11-20T02:17:01.704Z,-5.2
2022-11-20T02:18:01.720Z,-5.2
2022-11-20T02:19:01.693Z,-5.2
2022-11-20T02:20:01.683Z,-5
2022-11-20T02:21:01.656Z,-4.9
2022-11-20T02:22:01.610Z,-4.8
2022-11-20T02:23:01.605Z,-4.9
2022-11-20T02:24:01.594Z,-4.8
2022-11-20T02:25:01.531Z,-4.8
2022-11-20T02:26:01.536Z,-4.8
2022-11-20T02:27:01.517Z,-4.7
2022-11-20T02:28:01.527Z,-4.7
2022-11-20T02:29:01.507Z,-4.7
2022-11-20T02:30:01.494Z,-4.7
2022-11-20T02:31:01.511Z,-4.7
2022-11-20T02:32:01.379Z,-4.7
2022-11-20T02:33:01.333Z,-4.6
2022-11-20T02:34:02.340Z,-4.6
2022-11-20T02:35:01.331Z,-4.7
2022-11-20T02:36:02.321Z,-4.6
2022-11-20T02:37:01.347Z,-4.6
2022-11-20T02:38:02.336Z,-4.7
2022-11-20T02:39:02.317Z,-4.7
2022-11-20T02:40:02.350Z,-4.6
2022-11-20T02:41:01.354Z,-4.6
2022-11-20T02:42:02.306Z,-4.7
2022-11-20T02:43:02.340Z,-4.7
2022-11-20T02:44:02.326Z,-4.7
2022-11-20T02:45:02.338Z,-4.7
2022-11-20T02:46:01.348Z,-4.7
2022-11-20T02:47:01.776Z,-4.7
2022-11-20T02:48:01.782Z,-4.7
2022-11-20T02:49:01.792Z,-4.7
2022-11-20T02:50:01.726Z,-4.7
2022-11-20T02:51:01.711Z,-4.7
2022-11-20T02:52:01.723Z,-4.7
2022-11-20T02:53:01.694Z,-4.7
2022-11-20T02:54:01.728Z,-4.7
2022-11-20T02:55:01.677Z,-4.7
2022-11-20T02:56:01.676Z,-4.7
2022-11-20T02:57:01.649Z,-4.6
2022-11-20T02:58:01.662Z,-4.5
2022-11-20T02:59:01.655Z,-4.6
2022-11-20T03:00:01.704Z,-4.6
2022-11-20T03:01:01.712Z,-4.6
2022-11-20T03:02:01.541Z,-4.5
2022-11-20T03:03:01.467Z,-4.6
2022-11-20T03:04:01.479Z,-4.5
2022-11-20T03:05:01.388Z,-4.5
2022-11-20T03:06:01.377Z,-4.4
2022-11-20T03:07:01.352Z,-4.4
2022-11-20T03:08:02.344Z,-4.5
2022-11-20T03:09:02.362Z,-4.6
2022-11-20T03:10:01.285Z,-4.6
2022-11-20T03:11:02.293Z,-4.6
2022-11-20T03:12:02.306Z,-4.6
2022-11-20T03:13:02.327Z,-4.6
2022-11-20T03:14:02.345Z,-4.5
2022-11-20T03:15:02.337Z,-4.5
2022-11-20T03:16:01.342Z,-4.5
2022-11-20T03:17:02.105Z,-4.4
2022-11-20T03:18:02.096Z,-4.4
2022-11-20T03:19:02.091Z,-4.5
2022-11-20T03:20:02.108Z,-4.4
2022-11-20T03:21:02.042Z,-4.5
2022-11-20T03:22:02.014Z,-4.5
2022-11-20T03:23:02.021Z,-4.6
2022-11-20T03:24:02.018Z,-4.7
2022-11-20T03:25:02.008Z,-4.6
2022-11-20T03:26:01.960Z,-4.8
2022-11-20T03:27:01.961Z,-4.8
2022-11-20T03:28:01.942Z,-4.8
2022-11-20T03:29:01.936Z,-4.7
2022-11-20T03:30:01.920Z,-4.8
2022-11-20T03:31:01.921Z,-4.7
2022-11-20T03:32:01.621Z,-4.7
2022-11-20T03:33:01.638Z,-4.7
2022-11-20T03:34:01.594Z,-4.6
2022-11-20T03:35:01.537Z,-4.6
2022-11-20T03:36:01.509Z,-4.7
2022-11-20T03:37:01.486Z,-4.6
2022-11-20T03:38:01.504Z,-4.6
2022-11-20T03:39:01.485Z,-4.6
2022-11-20T03:40:01.484Z,-4.6
2022-11-20T03:41:01.472Z,-4.6
2022-11-20T03:42:01.450Z,-4.6
2022-11-20T03:43:01.426Z,-4.7
2022-11-20T03:44:01.492Z,-4.7
2022-11-20T03:45:01.455Z,-4.7
2022-11-20T03:46:01.471Z,-4.6
2022-11-20T03:47:02.202Z,-4.6
2022-11-20T03:48:02.239Z,-4.7
2022-11-20T03:49:02.216Z,-4.6
2022-11-20T03:50:02.247Z,-4.7
2022-11-20T03:51:01.398Z,-4.7
2022-11-20T03:52:01.386Z,-4.7
2022-11-20T03:53:01.366Z,-4.6
2022-11-20T03:54:01.353Z,-4.6
2022-11-20T03:55:01.358Z,-4.6
2022-11-20T03:56:01.362Z,-4.7
2022-11-20T03:57:01.350Z,-4.5
2022-11-20T03:58:02.327Z,-4.7
2022-11-20T03:59:01.341Z,-4.6
2022-11-20T04:00:02.346Z,-4.6
2022-11-20T04:01:02.403Z,-4.7
2022-11-20T04:02:02.121Z,-4.6
2022-11-20T04:03:02.099Z,-4.6
2022-11-20T04:04:02.109Z,-4.6
2022-11-20T04:05:02.087Z,-4.6
2022-11-20T04:06:02.064Z,-4.5
2022-11-20T04:07:02.157Z,-4.6
2022-11-20T04:08:02.094Z,-4.5
2022-11-20T04:09:02.068Z,-4.6
2022-11-20T04:10:02.064Z,-4.5
2022-11-20T04:11:02.052Z,-4.6
2022-11-20T04:12:02.041Z,-4.6
2022-11-20T04:13:02.006Z,-4.6
2022-11-20T04:14:02.002Z,-4.7
2022-11-20T04:15:02.002Z,-4.7
2022-11-20T04:16:02.016Z,-4.7
2022-11-20T04:17:01.562Z,-4.6
2022-11-20T04:18:01.540Z,-4.7
2022-11-20T04:19:01.511Z,-4.6
2022-11-20T04:20:01.486Z,-4.6
2022-11-20T04:21:01.456Z,-4.5
2022-11-20T04:22:01.394Z,-4.4
2022-11-20T04:23:01.403Z,-4.4
2022-11-20T04:24:01.376Z,-4.4
2022-11-20T04:25:01.391Z,-4.3
2022-11-20T04:26:01.344Z,-4.3
2022-11-20T04:27:01.480Z,-4.2
2022-11-20T04:28:01.464Z,-4.2
2022-11-20T04:29:01.452Z,-4.3
2022-11-20T04:30:01.436Z,-4.3
2022-11-20T04:31:01.390Z,-4.2
2022-11-20T04:32:02.353Z,-4.2
2022-11-20T04:33:02.223Z,-4.3
2022-11-20T04:34:02.233Z,-4.3
2022-11-20T04:35:02.266Z,-4.3
2022-11-20T04:36:02.244Z,-4.4
2022-11-20T04:37:02.241Z,-4.4
2022-11-20T04:38:02.230Z,-4.3
2022-11-20T04:39:02.230Z,-4.3
2022-11-20T04:40:02.234Z,-4.4
2022-11-20T04:41:02.254Z,-4.4
2022-11-20T04:42:02.259Z,-4.4
2022-11-20T04:43:02.297Z,-4.5
2022-11-20T04:44:02.297Z,-4.3
2022-11-20T04:45:02.315Z,-4.4
2022-11-20T04:46:02.336Z,-4.4
2022-11-20T04:47:01.336Z,-4.5
2022-11-20T04:48:02.325Z,-4.4
2022-11-20T04:49:02.316Z,-4.4
2022-11-20T04:50:02.362Z,-4.3
2022-11-20T04:51:01.383Z,-4.4
2022-11-20T04:52:02.366Z,-4.4
2022-11-20T04:53:01.325Z,-4.4
2022-11-20T04:54:02.352Z,-4.5
2022-11-20T04:55:01.351Z,-4.5
2022-11-20T04:56:02.313Z,-4.5
2022-11-20T04:57:02.326Z,-4.5
2022-11-20T04:58:02.331Z,-4.5
2022-11-20T04:59:01.348Z,-4.6
2022-11-20T05:00:01.305Z,-4.7
2022-11-20T05:01:01.352Z,-4.9
2022-11-20T05:02:02.268Z,-4.8
2022-11-20T05:03:02.251Z,-4.9
2022-11-20T05:04:02.287Z,-4.9
2022-11-20T05:05:02.287Z,-5
2022-11-20T05:06:02.368Z,-5
2022-11-20T05:07:01.407Z,-5
2022-11-20T05:08:01.381Z,-5.1
2022-11-20T05:09:01.334Z,-5.1
2022-11-20T05:10:02.331Z,-5.1
2022-11-20T05:11:02.359Z,-5
2022-11-20T05:12:01.352Z,-5
2022-11-20T05:13:01.348Z,-4.9
2022-11-20T05:14:01.344Z,-5
2022-11-20T05:15:01.758Z,-5
2022-11-20T05:16:02.045Z,-5.1
2022-11-20T05:17:01.785Z,-5.2
2022-11-20T05:18:01.769Z,-5
2022-11-20T05:19:01.757Z,-5.1
2022-11-20T05:20:01.750Z,-5.1
2022-11-20T05:21:01.776Z,-5
2022-11-20T05:22:01.822Z,-5
2022-11-20T05:23:01.737Z,-4.9
2022-11-20T05:24:01.733Z,-4.9
2022-11-20T05:25:01.737Z,-4.9
2022-11-20T05:26:01.766Z,-4.8
2022-11-20T05:27:01.774Z,-4.8
2022-11-20T05:28:01.747Z,-4.8
2022-11-20T05:29:01.758Z,-4.7
2022-11-20T05:30:01.755Z,-4.7
2022-11-20T05:31:01.731Z,-4.7
2022-11-20T05:32:01.588Z,-4.6
2022-11-20T05:33:01.575Z,-4.6
2022-11-20T05:34:01.555Z,-4.6
2022-11-20T05:35:01.473Z,-4.7
2022-11-20T05:36:01.463Z,-4.7
2022-11-20T05:37:01.431Z,-4.7
2022-11-20T05:38:01.442Z,-4.7
2022-11-20T05:39:02.007Z,-4.6
2022-11-20T05:40:01.845Z,-4.6
2022-11-20T05:41:01.874Z,-4.6
2022-11-20T05:42:01.888Z,-4.5
2022-11-20T05:43:01.870Z,-4.5
2022-11-20T05:44:01.855Z,-4.6
2022-11-20T05:45:01.866Z,-4.6
2022-11-20T05:46:01.808Z,-4.5
2022-11-20T05:47:01.544Z,-4.5
2022-11-20T05:48:01.530Z,-4.6
2022-11-20T05:49:01.511Z,-4.7
2022-11-20T05:50:01.496Z,-4.7
2022-11-20T05:51:01.475Z,-4.6
2022-11-20T05:52:01.470Z,-4.4
2022-11-20T05:53:01.429Z,-4.5
2022-11-20T05:54:01.414Z,-4.5
2022-11-20T05:55:01.322Z,-4.6
2022-11-20T05:56:02.305Z,-4.6
2022-11-20T05:57:02.329Z,-4.6
2022-11-20T05:58:02.360Z,-4.5
2022-11-20T05:59:02.315Z,-4.6
2022-11-20T06:00:02.327Z,-4.5
2022-11-20T06:01:01.341Z,-4.5
2022-11-20T06:02:02.173Z,-4.4
2022-11-20T06:03:02.195Z,-4.4
2022-11-20T06:04:02.329Z,-4.4
2022-11-20T06:05:02.347Z,-4.4
2022-11-20T06:06:02.336Z,-4.4
2022-11-20T06:07:01.371Z,-4.6
2022-11-20T06:08:01.342Z,-4.6
2022-11-20T06:09:02.347Z,-4.6
2022-11-20T06:10:01.313Z,-4.5
2022-11-20T06:11:02.332Z,-4.6
2022-11-20T06:12:02.334Z,-4.6
2022-11-20T06:13:02.313Z,-4.5
2022-11-20T06:14:02.319Z,-4.5
2022-11-20T06:15:02.352Z,-4.4
2022-11-20T06:16:01.277Z,-4.4
2022-11-20T06:17:02.012Z,-4.4
2022-11-20T06:18:02.020Z,-4.3
2022-11-20T06:19:02.013Z,-4.4
2022-11-20T06:20:01.993Z,-4.4
2022-11-20T06:21:01.963Z,-4.5
2022-11-20T06:22:01.979Z,-4.5
2022-11-20T06:23:01.950Z,-4.5
2022-11-20T06:24:01.932Z,-4.6
2022-11-20T06:25:01.938Z,-4.6
2022-11-20T06:26:01.875Z,-4.6
2022-11-20T06:27:01.859Z,-4.6
2022-11-20T06:28:01.854Z,-4.7
2022-11-20T06:29:01.831Z,-4.6
2022-11-20T06:30:01.826Z,-4.7
2022-11-20T06:31:01.794Z,-4.6
2022-11-20T06:32:01.641Z,-4.7
2022-11-20T06:33:01.633Z,-4.6
2022-11-20T06:34:01.633Z,-4.6
2022-11-20T06:35:01.619Z,-4.6
2022-11-20T06:36:04.599Z,-4.5
2022-11-20T06:37:01.633Z,-4.5
2022-11-20T06:38:01.618Z,-4.5
2022-11-20T06:39:01.629Z,-4.4
2022-11-20T06:40:01.590Z,-4.3
2022-11-20T06:41:01.566Z,-4.3
2022-11-20T06:42:01.534Z,-4.2
2022-11-20T06:43:01.513Z,-4.3
2022-11-20T06:44:01.494Z,-4.1
2022-11-20T06:45:01.432Z,-4.1
2022-11-20T06:46:01.425Z,-4
2022-11-20T06:47:01.997Z,-4
2022-11-20T06:48:02.093Z,-3.7
2022-11-20T06:49:02.094Z,-3.8
2022-11-20T06:50:02.116Z,-3.6
2022-11-20T06:51:02.104Z,-3.7
2022-11-20T06:52:02.089Z,-3.4
2022-11-20T06:53:02.089Z,-3.5
2022-11-20T06:54:02.106Z,-3.5
2022-11-20T06:55:02.091Z,-3.4
2022-11-20T06:56:02.084Z,-3.2
2022-11-20T06:57:02.091Z,-3.3
2022-11-20T06:58:02.069Z,-3.2
2022-11-20T06:59:02.057Z,-3.2
2022-11-20T07:00:02.044Z,-3.2
2022-11-20T07:01:02.063Z,-3.1
2022-11-20T07:02:02.167Z,-2.5
2022-11-20T07:03:02.161Z,-2.6
2022-11-20T07:04:02.187Z,-2.4
2022-11-20T07:05:02.204Z,-2
2022-11-20T07:06:02.207Z,-1.6
2022-11-20T07:07:02.296Z,-1.5
2022-11-20T07:08:02.273Z,-1.2
2022-11-20T07:09:02.306Z,-1.3
2022-11-20T07:10:02.339Z,-1.5
2022-11-20T07:11:01.336Z,-1.2
2022-11-20T07:12:02.362Z,-1.2
2022-11-20T07:13:01.347Z,-1.9
2022-11-20T07:14:01.338Z,-1.6
2022-11-20T07:15:01.342Z,-1.2
2022-11-20T07:16:02.318Z,-1.1
2022-11-20T07:17:02.174Z,-1
2022-11-20T07:18:02.161Z,-1.2
2022-11-20T07:19:02.303Z,-1.1
2022-11-20T07:20:02.350Z,-1.1
2022-11-20T07:21:02.333Z,-1.1
2022-11-20T07:22:02.351Z,-0.8
2022-11-20T07:23:02.334Z,-0.6
2022-11-20T07:24:02.357Z,-0.3
2022-11-20T07:25:01.335Z,-0.2
2022-11-20T07:26:01.341Z,-0.1
2022-11-20T07:27:02.328Z,0.1
2022-11-20T07:28:01.376Z,0.2
2022-11-20T07:29:02.344Z,0.4
2022-11-20T07:30:01.294Z,0.1
2022-11-20T07:31:02.281Z,0.4
2022-11-20T07:32:02.162Z,0.3
2022-11-20T07:33:02.166Z,-0.1
2022-11-20T07:34:02.182Z,-0.2
2022-11-20T07:35:02.281Z,-0.2
2022-11-20T07:36:02.194Z,-0.5
2022-11-20T07:37:04.862Z,-0.7
2022-11-20T07:38:02.227Z,-0.6
2022-11-20T07:39:02.245Z,-0.2
2022-11-20T07:40:02.296Z,-0.2
2022-11-20T07:41:02.298Z,-0.5
2022-11-20T07:42:01.391Z,-0.6
2022-11-20T07:43:01.390Z,-0.7
2022-11-20T07:44:01.381Z,-0.7
2022-11-20T07:45:01.396Z,-0.3
2022-11-20T07:46:01.310Z,0.1
2022-11-20T07:47:01.356Z,0.2
2022-11-20T07:48:01.373Z,0.3
2022-11-20T07:49:01.335Z,0.9
2022-11-20T07:50:02.373Z,0.6
2022-11-20T07:51:01.366Z,0.5
2022-11-20T07:52:04.636Z,0.3
2022-11-20T07:53:02.161Z,0.1
2022-11-20T07:54:02.157Z,0.8
2022-11-20T07:55:02.177Z,0.6
2022-11-20T07:56:02.160Z,1
2022-11-20T07:57:02.148Z,0.8
2022-11-20T07:58:02.145Z,0.9
2022-11-20T07:59:02.129Z,1.2
2022-11-20T08:00:02.136Z,1.2
2022-11-20T08:01:02.139Z,1.5
2022-11-20T08:02:01.413Z,1.2
2022-11-20T08:03:01.406Z,1.6
2022-11-20T08:04:01.358Z,1.6
2022-11-20T08:05:01.343Z,1.5
2022-11-20T08:06:02.347Z,1.7
2022-11-20T08:07:02.337Z,1.6
2022-11-20T08:08:01.357Z,1.6
2022-11-20T08:09:01.351Z,1.1
2022-11-20T08:10:02.362Z,1.1
2022-11-20T08:11:01.338Z,1
2022-11-20T08:12:01.373Z,0.9
2022-11-20T08:13:01.346Z,1.1
2022-11-20T08:14:01.342Z,0.8
2022-11-20T08:15:01.319Z,0.8
2022-11-20T08:16:01.353Z,1.6
2022-11-20T08:17:01.928Z,1.8
2022-11-20T08:18:23.595Z,1.2
2022-11-20T08:19:01.469Z,0.8
2022-11-20T08:20:01.395Z,0.7
2022-11-20T08:21:01.418Z,0.8
2022-11-20T08:22:01.390Z,1.4
2022-11-20T08:23:01.381Z,1.9
2022-11-20T08:24:01.353Z,1.6
2022-11-20T08:25:01.294Z,1.5
2022-11-20T08:26:02.307Z,1.8
2022-11-20T08:27:02.334Z,1.7
2022-11-20T08:28:09.074Z,2.1
2022-11-20T08:29:01.804Z,2
2022-11-20T08:30:01.762Z,2
2022-11-20T08:31:01.699Z,2.6
2022-11-20T08:32:01.647Z,2.2
2022-11-20T08:33:01.617Z,1.7
2022-11-20T08:34:03.916Z,1.9
2022-11-20T08:35:01.709Z,1.8
2022-11-20T08:36:01.721Z,1.5
2022-11-20T08:37:01.673Z,1.9
2022-11-20T08:38:01.673Z,2.6
2022-11-20T08:39:01.665Z,2.6
2022-11-20T08:40:01.639Z,2.3
2022-11-20T08:41:01.626Z,1.9
2022-11-20T08:42:01.604Z,2.7
2022-11-20T08:43:01.563Z,2.9
2022-11-20T08:44:01.673Z,3
2022-11-20T08:45:01.677Z,2.1
2022-11-20T08:46:01.721Z,2.5
2022-11-20T08:47:01.428Z,2.6
2022-11-20T08:48:01.460Z,2.6
2022-11-20T08:49:01.423Z,3.1
2022-11-20T08:50:01.370Z,3.6
2022-11-20T08:51:01.381Z,3.3
2022-11-20T08:52:01.371Z,2.4
2022-11-20T08:53:01.334Z,2.4
2022-11-20T08:54:01.376Z,2
2022-11-20T08:55:01.371Z,1.9
2022-11-20T08:56:01.553Z,1.3
2022-11-20T08:57:01.524Z,1.3
2022-11-20T08:58:01.486Z,0.7
2022-11-20T08:59:20.438Z,1
2022-11-20T09:00:06.267Z,1
2022-11-20T09:01:01.369Z,0.9
2022-11-20T09:02:02.357Z,0.9
2022-11-20T09:03:01.338Z,0.5
2022-11-20T09:04:02.344Z,0.5
2022-11-20T09:05:02.332Z,0.6
2022-11-20T09:06:01.329Z,0.3
2022-11-20T09:07:02.339Z,0.5
2022-11-20T09:08:02.359Z,0.4
2022-11-20T09:09:06.269Z,0.4
2022-11-20T09:10:22.444Z,0.6
2022-11-20T09:11:01.676Z,0.5
2022-11-20T09:12:01.656Z,0.4
2022-11-20T09:13:01.657Z,0.1
2022-11-20T09:14:01.642Z,0
2022-11-20T09:15:01.570Z,0.1
2022-11-20T09:16:01.518Z,0.2
2022-11-20T09:17:01.363Z,0.2
2022-11-20T09:18:02.392Z,0.1
2022-11-20T09:19:28.464Z,0.1
2022-11-20T09:20:02.013Z,0.1
2022-11-20T09:21:02.059Z,0.1
2022-11-20T09:22:02.040Z,0.1
2022-11-20T09:23:02.028Z,0.2
2022-11-20T09:24:02.048Z,0.1
2022-11-20T09:25:02.019Z,-0.1
2022-11-20T09:26:02.010Z,-0.2
2022-11-20T09:27:01.998Z,-0.3
2022-11-20T09:28:01.988Z,-0.3
2022-11-20T09:29:01.967Z,-0.2
2022-11-20T09:30:01.961Z,-0.4
2022-11-20T09:31:01.966Z,-0.2
2022-11-20T09:32:01.638Z,-0.4
2022-11-20T09:33:01.660Z,-0.5
2022-11-20T09:34:01.621Z,-0.4
2022-11-20T09:36:01.511Z,-0.4
2022-11-20T09:37:03.041Z,-0.4
2022-11-20T09:38:01.502Z,-0.5
2022-11-20T09:39:01.518Z,-0.5
2022-11-20T09:40:01.484Z,-0.3
2022-11-20T09:41:01.461Z,-0.3
2022-11-20T09:42:01.481Z,-0.4
2022-11-20T09:43:01.440Z,-0.3
2022-11-20T09:44:01.431Z,-0.3
2022-11-20T09:45:01.424Z,-0.3
2022-11-20T09:46:01.442Z,-0.3
2022-11-20T09:47:02.219Z,-0.3
2022-11-20T09:48:02.245Z,-0.6
2022-11-20T09:49:02.246Z,-0.5
2022-11-20T09:50:02.213Z,-0.5
2022-11-20T09:51:02.254Z,-0.4
2022-11-20T09:52:02.279Z,-0.5
2022-11-20T09:53:02.308Z,-0.4
2022-11-20T09:54:02.340Z,-0.4
2022-11-20T09:55:02.339Z,-0.3
2022-11-20T09:56:01.337Z,-0.4
2022-11-20T09:57:01.337Z,-0.4
2022-11-20T09:58:01.331Z,-0.3
2022-11-20T09:59:01.378Z,-0.2
2022-11-20T10:00:01.407Z,-0.2
2022-11-20T10:01:01.401Z,-0.1
2022-11-20T10:02:02.307Z,0
2022-11-20T10:03:02.323Z,0.1
2022-11-20T10:04:02.345Z,0.1
2022-11-20T10:05:02.343Z,0
2022-11-20T10:06:02.337Z,-0.1
2022-11-20T10:07:30.604Z,0.1
2022-11-20T10:08:01.990Z,0.2
2022-11-20T10:09:01.987Z,0.4
2022-11-20T10:10:01.992Z,0.2
2022-11-20T10:11:01.957Z,0.3
2022-11-20T10:12:01.951Z,0.5
2022-11-20T10:13:01.911Z,0.5
2022-11-20T10:14:01.912Z,0.7
2022-11-20T10:15:01.943Z,0.6
2022-11-20T10:16:01.911Z,0.4
2022-11-20T10:17:01.923Z,0.2
2022-11-20T10:18:01.982Z,0.4
2022-11-20T10:19:01.917Z,0.5
2022-11-20T10:20:01.943Z,0.7
2022-11-20T10:21:01.882Z,0.9
2022-11-20T10:22:02.000Z,0.6
2022-11-20T10:23:01.986Z,0.8
2022-11-20T10:24:01.966Z,0.7
2022-11-20T10:25:01.954Z,0.5
2022-11-20T10:26:01.963Z,0.5
2022-11-20T10:27:01.941Z,0.6
2022-11-20T10:28:01.924Z,0.5
2022-11-20T10:29:04.752Z,0.6
2022-11-20T10:30:01.373Z,0.5
2022-11-20T10:31:01.425Z,0.2
2022-11-20T10:32:01.340Z,0.4
2022-11-20T10:33:01.384Z,0.4
2022-11-20T10:34:12.545Z,0.6
2022-11-20T10:35:01.764Z,0.5
2022-11-20T10:36:01.742Z,0.4
2022-11-20T10:37:01.733Z,0.3
2022-11-20T10:38:01.719Z,0.3
2022-11-20T10:39:01.712Z,0.4
2022-11-20T10:40:01.704Z,0.6
2022-11-20T10:41:01.668Z,0.5
2022-11-20T10:42:01.661Z,0.6
2022-11-20T10:43:01.639Z,0.7
2022-11-20T10:44:01.630Z,0.6
2022-11-20T10:45:05.544Z,1
2022-11-20T10:46:01.681Z,1.4
2022-11-20T10:47:01.409Z,1.4
2022-11-20T10:48:01.386Z,1.3
2022-11-20T10:49:01.373Z,1.2
2022-11-20T10:50:01.309Z,1.2
2022-11-20T10:51:02.362Z,1.1
2022-11-20T10:52:01.319Z,1
2022-11-20T10:53:02.419Z,0.8
2022-11-20T10:54:02.325Z,1
2022-11-20T10:55:02.338Z,1
2022-11-20T10:56:01.347Z,0.9
2022-11-20T10:57:01.330Z,1.1
2022-11-20T10:58:01.338Z,1.2
2022-11-20T10:59:01.342Z,1.4
2022-11-20T11:00:01.322Z,1.1
2022-11-20T11:01:01.345Z,1.2
2022-11-20T11:02:03.293Z,1
2022-11-20T11:03:02.271Z,1.1
2022-11-20T11:04:02.276Z,1.1
2022-11-20T11:05:02.306Z,1.6
2022-11-20T11:06:02.341Z,1.4
2022-11-20T11:07:02.365Z,1.5
2022-11-20T11:08:02.340Z,1.5
2022-11-20T11:09:02.350Z,1.7
2022-11-20T11:10:01.352Z,1.9
2022-11-20T11:11:01.331Z,1.8
2022-11-20T11:12:06.905Z,1.8
2022-11-20T11:13:02.103Z,1.5
2022-11-20T11:14:02.086Z,1.5
2022-11-20T11:15:02.115Z,1.6
2022-11-20T11:16:02.088Z,1.7
2022-11-20T11:17:01.978Z,1.4
2022-11-20T11:18:01.957Z,1.1
2022-11-20T11:19:01.939Z,1.1
2022-11-20T11:20:01.936Z,1.3
2022-11-20T11:21:01.931Z,1.3
2022-11-20T11:22:01.929Z,1.1
2022-11-20T11:23:01.956Z,1.3
2022-11-20T11:24:13.752Z,1.7
2022-11-20T11:25:01.712Z,1.9
2022-11-20T11:26:01.695Z,2
2022-11-20T11:27:01.691Z,2.1
2022-11-20T11:28:01.691Z,2.1
2022-11-20T11:29:01.690Z,2
2022-11-20T11:30:01.684Z,2.3
2022-11-20T11:31:01.759Z,2.7
2022-11-20T11:32:01.586Z,3
2022-11-20T11:33:01.546Z,3.8
2022-11-20T11:34:01.513Z,3.3
2022-11-20T11:35:01.435Z,3.1
2022-11-20T11:36:01.435Z,3.1
2022-11-20T11:37:01.403Z,3.3
2022-11-20T11:38:01.407Z,3
2022-11-20T11:39:01.415Z,2.6
2022-11-20T11:40:23.287Z,2.4
2022-11-20T11:41:01.511Z,2.2
2022-11-20T11:42:01.547Z,2.1
2022-11-20T11:43:01.528Z,2.6
2022-11-20T11:44:01.535Z,2.8
2022-11-20T11:45:01.481Z,2.7
2022-11-20T11:46:01.476Z,3.1
2022-11-20T11:47:01.354Z,3.1
2022-11-20T11:48:01.347Z,2.9
2022-11-20T11:49:01.352Z,2.7
2022-11-20T11:50:02.342Z,2.6
2022-11-20T11:51:02.326Z,2.6
2022-11-20T11:52:02.337Z,2.7
2022-11-20T11:53:02.324Z,2.7
2022-11-20T11:54:02.352Z,3.6
2022-11-20T11:55:01.327Z,3.9
2022-11-20T11:56:02.237Z,4
2022-11-20T11:57:02.277Z,3.1
2022-11-20T11:58:02.270Z,3.2
2022-11-20T11:59:02.231Z,3.1
2022-11-20T12:00:02.257Z,3.1
2022-11-20T12:01:02.258Z,2.5
2022-11-20T12:02:01.787Z,2.5
2022-11-20T12:03:01.849Z,2.5
2022-11-20T12:04:01.823Z,2.7
2022-11-20T12:05:01.802Z,2.8
2022-11-20T12:06:01.781Z,2.6
2022-11-20T12:07:09.330Z,2.3
2022-11-20T12:08:01.493Z,2.3
2022-11-20T12:09:01.451Z,2.2
2022-11-20T12:10:01.476Z,2
2022-11-20T12:11:01.443Z,1.9
2022-11-20T12:12:01.470Z,2.1
2022-11-20T12:13:01.443Z,2
2022-11-20T12:14:01.431Z,1.5
2022-11-20T12:15:01.410Z,1.7
2022-11-20T12:16:01.429Z,1.8
2022-11-20T12:17:02.040Z,1.6
2022-11-20T12:18:02.055Z,1.6
2022-11-20T12:19:02.039Z,1.2
2022-11-20T12:20:02.026Z,1.3
2022-11-20T12:21:02.020Z,1.5
2022-11-20T12:22:04.197Z,1.4
2022-11-20T12:23:02.031Z,1.4
2022-11-20T12:24:02.018Z,1.3
2022-11-20T12:25:02.032Z,1.2
2022-11-20T12:26:01.987Z,1.4
2022-11-20T12:27:01.991Z,1.4
2022-11-20T12:28:01.981Z,1.5
2022-11-20T12:29:01.955Z,1.3
2022-11-20T12:30:01.968Z,1.5
2022-11-20T12:31:01.938Z,2.6
2022-11-20T12:32:01.730Z,2.8
2022-11-20T12:33:01.729Z,2.4
2022-11-20T12:34:01.737Z,2.5
2022-11-20T12:35:01.692Z,2.7
2022-11-20T12:36:01.431Z,2.4
2022-11-20T12:37:01.554Z,2.5
2022-11-20T12:38:01.581Z,2.6
2022-11-20T12:39:01.516Z,2.5
2022-11-20T12:40:01.542Z,2.6
2022-11-20T12:41:01.559Z,2.7
2022-11-20T12:42:01.523Z,2.7
2022-11-20T12:43:01.518Z,3.1
2022-11-20T12:44:01.491Z,3.5
2022-11-20T12:45:01.437Z,3.4
2022-11-20T12:46:01.431Z,3.5
2022-11-20T12:47:01.330Z,3.1
2022-11-20T12:48:02.376Z,3.4
2022-11-20T12:49:01.346Z,3.4
2022-11-20T12:50:01.448Z,3.7
2022-11-20T12:51:14.370Z,3.9
2022-11-20T12:52:01.889Z,3.6
2022-11-20T12:53:01.894Z,3.6
2022-11-20T12:54:01.887Z,3.9
2022-11-20T12:55:01.913Z,3.8
2022-11-20T12:56:01.925Z,4.1
2022-11-20T12:57:03.910Z,4.6
2022-11-20T12:58:02.050Z,4.5
2022-11-20T12:59:02.061Z,4.1
2022-11-20T13:00:02.044Z,4.2
2022-11-20T13:01:02.040Z,3.9
2022-11-20T13:02:02.293Z,3.2
2022-11-20T13:03:01.344Z,3.9
2022-11-20T13:04:02.499Z,3.9
2022-11-20T13:05:02.027Z,4
2022-11-20T13:06:02.019Z,4.5
2022-11-20T13:07:01.970Z,4.2
2022-11-20T13:08:01.950Z,3.8
2022-11-20T13:09:01.945Z,4.1
2022-11-20T13:10:01.932Z,3.8
2022-11-20T13:11:01.858Z,4
2022-11-20T13:12:01.891Z,3.7
2022-11-20T13:13:01.841Z,3.3
2022-11-20T13:14:01.827Z,2.7
2022-11-20T13:15:01.768Z,2.5
2022-11-20T13:16:01.809Z,3.1
2022-11-20T13:17:05.824Z,2.9
2022-11-20T13:18:02.053Z,3.1
2022-11-20T13:19:02.059Z,3.3
2022-11-20T13:20:02.021Z,3.6
2022-11-20T13:21:02.018Z,3.8
2022-11-20T13:22:02.001Z,3.8
2022-11-20T13:23:01.995Z,3.4
2022-11-20T13:24:01.964Z,2.9
2022-11-20T13:25:01.960Z,3
2022-11-20T13:26:01.944Z,3.5
2022-11-20T13:27:01.926Z,4.1
2022-11-20T13:28:01.935Z,3.9
2022-11-20T13:29:01.951Z,3.8
2022-11-20T13:30:01.920Z,4.1
2022-11-20T13:31:01.891Z,3.8
2022-11-20T13:32:06.468Z,3.6
2022-11-20T13:33:01.935Z,3.6
2022-11-20T13:34:01.970Z,3.1